createdAt,value
2023-03-08T00:21:06.516Z,97894.41
2023-03-08T00:23:35.747Z,97901.00
2023-03-08T00:26:04.925Z,97891.56
2023-03-08T00:28:33.907Z,97892.22
2023-03-08T00:31:05.278Z,97888.78
2023-03-08T00:33:34.732Z,97889.56
2023-03-08T00:36:07.904Z,97888.78
2023-03-08T00:38:39.195Z,97880.25
2023-03-08T00:41:08.281Z,97879.34
2023-03-08T00:43:37.357Z,97879.34
2023-03-08T00:46:07.274Z,97880.91
2023-03-08T00:48:35.912Z,97875.84
2023-03-08T00:51:06.296Z,97870.75
2023-03-08T00:53:35.274Z,97869.84
2023-03-08T00:56:04.055Z,97880.00
2023-03-08T00:58:34.089Z,97874.13
2023-03-08T01:01:02.826Z,97874.94
2023-03-08T01:03:31.715Z,97867.31
2023-03-08T01:06:00.985Z,97852.88
2023-03-08T01:08:31.099Z,97863.84
2023-03-08T01:11:01.103Z,97864.75
2023-03-08T01:13:32.455Z,97846.19
2023-03-08T01:16:02.485Z,97854.72
2023-03-08T01:18:31.190Z,97847.91
2023-03-08T01:21:03.098Z,97853.94
2023-03-08T01:23:33.952Z,97865.69
2023-03-08T01:26:04.879Z,97861.56
2023-03-08T01:28:34.779Z,97859.94
2023-03-08T01:31:05.485Z,97862.47
2023-03-08T01:33:35.798Z,97854.03
2023-03-08T01:36:06.305Z,97856.69
2023-03-08T01:38:36.593Z,97855.75
2023-03-08T01:41:07.693Z,97839.72
2023-03-08T01:43:41.955Z,97843.84
2023-03-08T01:46:25.319Z,97838.91
2023-03-08T01:49:27.009Z,97832.22
2023-03-08T01:52:02.919Z,97825.41
2023-03-08T01:54:37.120Z,97825.53
2023-03-08T01:57:13.175Z,97826.56
2023-03-08T01:59:41.952Z,97829.09
2023-03-08T02:02:11.084Z,97817.31
2023-03-08T02:04:42.067Z,97819.06
2023-03-08T02:07:14.236Z,97824.13
2023-03-08T02:09:46.201Z,97813.97
2023-03-08T02:12:15.552Z,97822.50
2023-03-08T02:14:45.579Z,97813.28
2023-03-08T02:17:14.299Z,97808.19
2023-03-08T02:19:49.849Z,97804.84
2023-03-08T02:22:20.186Z,97803.25
2023-03-08T02:24:50.252Z,97793.06
2023-03-08T02:27:23.382Z,97792.28
2023-03-08T02:29:52.059Z,97783.72
2023-03-08T02:32:20.950Z,97781.19
2023-03-08T02:34:49.651Z,97767.69
2023-03-08T02:37:18.325Z,97778.63
2023-03-08T02:39:51.181Z,97777.03
2023-03-08T02:42:19.812Z,97767.69
2023-03-08T02:44:48.835Z,97770.34
2023-03-08T02:47:18.817Z,97770.34
2023-03-08T02:49:49.316Z,97765.25
2023-03-08T02:52:18.507Z,97759.38
2023-03-08T02:54:47.150Z,97768.59
2023-03-08T02:57:17.208Z,97766.06
2023-03-08T02:59:47.351Z,97760.19
2023-03-08T03:02:17.272Z,97761.81
2023-03-08T03:04:46.206Z,97752.44
2023-03-08T03:07:15.022Z,97751.66
2023-03-08T03:09:43.879Z,97752.44
2023-03-08T03:12:12.719Z,97749.91
2023-03-08T03:14:45.259Z,97761.81
2023-03-08T03:17:14.348Z,97744.03
2023-03-08T03:19:42.972Z,97750.03
2023-03-08T03:22:11.672Z,97736.41
2023-03-08T03:24:40.367Z,97731.34
2023-03-08T03:27:09.634Z,97726.25
2023-03-08T03:29:40.775Z,97721.31
2023-03-08T03:32:20.065Z,97727.19
2023-03-08T03:34:48.985Z,97717.13
2023-03-08T03:37:20.879Z,97724.88
2023-03-08T03:39:49.495Z,97724.06
2023-03-08T03:42:20.411Z,97724.19
2023-03-08T03:44:56.421Z,97731.00
2023-03-08T03:47:27.309Z,97725.91
2023-03-08T03:50:00.105Z,97733.53
2023-03-08T03:52:33.274Z,97723.50
2023-03-08T03:55:06.834Z,97718.31
2023-03-08T03:57:36.081Z,97716.69
2023-03-08T04:00:07.258Z,97720.97
2023-03-08T04:02:43.583Z,97726.97
2023-03-08T04:05:15.174Z,97728.66
2023-03-08T04:07:48.166Z,97724.53
2023-03-08T04:10:17.948Z,97722.00
2023-03-08T04:12:50.371Z,97705.25
2023-03-08T04:15:20.679Z,97703.66
2023-03-08T04:17:52.696Z,97703.66
2023-03-08T04:20:24.121Z,97696.81
2023-03-08T04:22:57.508Z,97698.56
2023-03-08T04:25:38.347Z,97694.41
2023-03-08T04:28:08.250Z,97696.94
2023-03-08T04:30:36.953Z,97698.56
2023-03-08T04:33:09.409Z,97699.38
2023-03-08T04:35:46.216Z,97707.09
2023-03-08T04:38:16.841Z,97697.66
2023-03-08T04:41:05.599Z,97693.50
2023-03-08T04:43:48.851Z,97685.19
2023-03-08T04:46:22.848Z,97681.72
2023-03-08T04:48:55.503Z,97680.13
2023-03-08T04:51:28.098Z,97676.75
2023-03-08T04:53:59.641Z,97673.31
2023-03-08T04:56:28.364Z,97665.69
2023-03-08T04:58:57.167Z,97666.47
2023-03-08T05:01:27.444Z,97663.94
2023-03-08T05:03:58.037Z,97655.41
2023-03-08T05:06:34.759Z,97663.03
2023-03-08T05:09:03.534Z,97657.94
2023-03-08T05:11:32.434Z,97657.94
2023-03-08T05:14:02.142Z,97654.63
2023-03-08T05:16:31.262Z,97652.19
2023-03-08T05:19:01.330Z,97647.91
2023-03-08T05:21:35.354Z,97645.38
2023-03-08T05:24:04.652Z,97649.66
2023-03-08T05:26:37.165Z,97652.19
2023-03-08T05:29:06.834Z,97667.44
2023-03-08T05:31:37.927Z,97673.44
2023-03-08T05:34:12.316Z,97678.38
2023-03-08T05:36:43.822Z,97673.31
2023-03-08T05:39:13.266Z,97670.75
2023-03-08T05:41:57.912Z,97661.41
2023-03-08T05:44:37.761Z,97652.19
2023-03-08T05:47:07.787Z,97646.16
2023-03-08T05:49:39.279Z,97640.31
2023-03-08T05:52:09.245Z,97641.22
2023-03-08T05:54:39.643Z,97631.19
2023-03-08T05:57:12.618Z,97633.72
2023-03-08T05:59:42.056Z,97636.25
2023-03-08T06:02:13.802Z,97633.72
2023-03-08T06:04:50.531Z,97622.91
2023-03-08T06:07:22.977Z,97624.50
2023-03-08T06:09:59.115Z,97616.06
2023-03-08T06:12:27.818Z,97614.34
2023-03-08T06:14:59.799Z,97614.34
2023-03-08T06:17:32.142Z,97613.66
2023-03-08T06:20:02.508Z,97617.81
2023-03-08T06:22:34.152Z,97611.13
2023-03-08T06:25:04.548Z,97606.03
2023-03-08T06:27:36.658Z,97597.59
2023-03-08T06:30:12.589Z,97590.81
2023-03-08T06:32:42.834Z,97602.59
2023-03-08T06:35:13.815Z,97596.03
2023-03-08T06:37:49.218Z,97587.56
2023-03-08T06:40:19.805Z,97586.78
2023-03-08T06:42:48.411Z,97587.44
2023-03-08T06:45:18.188Z,97592.66
2023-03-08T06:47:46.959Z,97595.31
2023-03-08T06:50:18.082Z,97594.53
2023-03-08T06:52:49.387Z,97578.47
2023-03-08T06:55:22.542Z,97577.69
2023-03-08T06:57:51.159Z,97581.13
2023-03-08T07:00:21.294Z,97574.34
2023-03-08T07:02:50.242Z,97563.50
2023-03-08T07:05:20.476Z,97569.47
2023-03-08T07:07:49.595Z,97568.56
2023-03-08T07:10:20.477Z,97551.59
2023-03-08T07:12:51.477Z,97546.41
2023-03-08T07:15:24.515Z,97541.44
2023-03-08T07:17:57.867Z,97537.53
2023-03-08T07:20:29.198Z,97523.38
2023-03-08T07:23:01.681Z,97525.09
2023-03-08T07:25:30.657Z,97515.84
2023-03-08T07:28:00.354Z,97520.84
2023-03-08T07:30:29.166Z,97525.91
2023-03-08T07:32:57.979Z,97523.25
2023-03-08T07:35:28.149Z,97519.75
2023-03-08T07:37:56.788Z,97518.06
2023-03-08T07:40:25.447Z,97508.69
2023-03-08T07:42:54.096Z,97499.38
2023-03-08T07:45:36.373Z,97489.22
2023-03-08T07:48:05.343Z,97487.59
2023-03-08T07:50:35.760Z,97488.38
2023-03-08T07:53:04.958Z,97473.28
2023-03-08T07:55:33.574Z,97474.22
2023-03-08T07:58:02.259Z,97470.09
2023-03-08T08:00:31.182Z,97469.25
2023-03-08T08:03:00.016Z,97466.72
2023-03-08T08:05:32.009Z,97474.34
2023-03-08T08:08:02.146Z,97461.78
2023-03-08T08:10:31.276Z,97457.50
2023-03-08T08:12:59.906Z,97451.75
2023-03-08T08:15:30.973Z,97445.97
2023-03-08T08:17:59.691Z,97432.63
2023-03-08T08:20:28.424Z,97426.06
2023-03-08T08:22:57.405Z,97430.34
2023-03-08T08:25:27.597Z,97425.34
2023-03-08T08:27:56.242Z,97400.09
2023-03-08T08:30:25.221Z,97397.69
2023-03-08T08:32:53.880Z,97399.69
2023-03-08T08:35:27.042Z,97382.03
2023-03-08T08:37:59.822Z,97366.94
2023-03-08T08:40:29.905Z,97367.06
2023-03-08T08:42:58.823Z,97364.53
2023-03-08T08:45:27.514Z,97362.13
2023-03-08T08:47:56.191Z,97348.66
2023-03-08T08:50:24.813Z,97354.63
2023-03-08T08:52:53.497Z,97340.34
2023-03-08T08:55:22.135Z,97334.47
2023-03-08T08:57:53.188Z,97333.66
2023-03-08T09:00:24.935Z,97314.31
2023-03-08T09:02:53.758Z,97305.88
2023-03-08T09:05:23.017Z,97303.47
2023-03-08T09:07:51.711Z,97301.72
2023-03-08T09:10:20.550Z,97300.13
2023-03-08T09:12:49.202Z,97300.13
2023-03-08T09:15:19.586Z,97298.53
2023-03-08T09:17:48.201Z,97297.59
2023-03-08T09:20:17.786Z,97289.88
2023-03-08T09:22:46.712Z,97294.81
2023-03-08T09:25:15.980Z,97291.47
2023-03-08T09:27:44.758Z,97285.59
2023-03-08T09:30:16.237Z,97288.94
2023-03-08T09:32:47.665Z,97274.53
2023-03-08T09:35:17.234Z,97271.06
2023-03-08T09:37:45.861Z,97274.38
2023-03-08T09:40:22.560Z,97276.13
2023-03-08T09:42:51.299Z,97271.06
2023-03-08T09:45:25.332Z,97243.03
2023-03-08T09:48:05.039Z,97267.47
2023-03-08T09:50:47.704Z,97259.88
2023-03-08T09:53:24.631Z,97247.06
2023-03-08T09:55:57.454Z,97242.09
2023-03-08T09:58:38.134Z,97253.97
2023-03-08T10:01:26.119Z,97248.78
2023-03-08T10:04:41.957Z,97243.59
2023-03-08T10:07:22.528Z,97238.25
2023-03-08T10:10:14.903Z,97229.72
2023-03-08T10:13:01.860Z,97214.25
2023-03-08T10:15:34.989Z,97209.31
2023-03-08T10:18:14.166Z,97204.22
2023-03-08T10:20:51.207Z,97208.47
2023-03-08T10:23:29.143Z,97193.94
2023-03-08T10:25:57.851Z,97210.88
2023-03-08T10:28:27.750Z,97176.84
2023-03-08T10:31:01.814Z,97183.41
2023-03-08T10:33:36.393Z,97194.25
2023-03-08T10:36:17.613Z,97184.88
2023-03-08T10:39:04.588Z,97186.50
2023-03-08T10:41:41.219Z,97181.44
2023-03-08T10:44:18.107Z,97173.13
2023-03-08T10:46:51.511Z,97181.56
2023-03-08T10:49:21.579Z,97179.81
2023-03-08T10:52:00.388Z,97180.50
2023-03-08T10:54:31.668Z,97182.09
2023-03-08T10:57:03.481Z,97171.00
2023-03-08T10:59:34.921Z,97164.09
2023-03-08T11:02:18.461Z,97153.94
2023-03-08T11:05:00.828Z,97144.44
2023-03-08T11:07:37.136Z,97149.38
2023-03-08T11:10:21.246Z,97143.25
2023-03-08T11:12:51.715Z,97149.94
2023-03-08T11:15:24.222Z,97141.41
2023-03-08T11:17:58.663Z,97142.06
2023-03-08T11:20:35.275Z,97120.84
2023-03-08T11:23:17.284Z,97147.81
2023-03-08T11:25:48.786Z,97141.00
2023-03-08T11:28:33.135Z,97135.00
2023-03-08T11:31:15.267Z,97124.72
2023-03-08T11:34:34.199Z,97124.72
2023-03-08T11:37:10.964Z,97128.88
2023-03-08T11:39:46.916Z,97120.31
2023-03-08T11:42:23.979Z,97119.22
2023-03-08T11:45:10.468Z,97096.28
2023-03-08T11:48:35.858Z,97103.91
2023-03-08T11:51:13.614Z,97092.78
2023-03-08T11:53:55.777Z,97093.63
2023-03-08T11:56:48.284Z,97096.94
2023-03-08T11:59:35.766Z,97089.31
2023-03-08T12:02:14.616Z,97088.25
2023-03-08T12:04:56.006Z,97087.19
2023-03-08T12:07:35.641Z,97086.28
2023-03-08T12:10:15.133Z,97083.72
2023-03-08T12:12:54.438Z,97077.69
2023-03-08T12:15:29.618Z,97086.00
2023-03-08T12:18:07.516Z,97076.50
2023-03-08T12:20:41.608Z,97086.66
2023-03-08T12:23:26.293Z,97085.59
2023-03-08T12:26:14.710Z,97083.72
2023-03-08T12:28:54.003Z,97082.66
2023-03-08T12:31:31.627Z,97084.16
2023-03-08T12:34:01.313Z,97088.16
2023-03-08T12:36:42.872Z,97081.19
2023-03-08T12:39:28.390Z,97073.44
2023-03-08T12:42:17.692Z,97067.44
2023-03-08T12:44:47.717Z,97069.03
2023-03-08T12:47:23.480Z,97070.50
2023-03-08T12:49:56.333Z,97071.16
2023-03-08T12:52:35.038Z,97076.09
2023-03-08T12:55:09.130Z,97060.72
2023-03-08T12:57:48.144Z,97069.03
2023-03-08T13:00:30.783Z,97060.34
2023-03-08T13:03:08.219Z,97055.91
2023-03-08T13:05:38.722Z,97055.66
2023-03-08T13:08:25.367Z,97058.06
2023-03-08T13:11:09.851Z,97053.50
2023-03-08T13:13:50.661Z,97062.56
2023-03-08T13:16:34.565Z,97063.41
2023-03-08T13:19:19.969Z,97071.69
2023-03-08T13:21:52.568Z,97063.78
2023-03-08T13:24:37.699Z,97059.50
2023-03-08T13:27:32.426Z,97060.16
2023-03-08T13:30:18.970Z,97055.75
2023-03-08T13:32:50.409Z,97063.88
2023-03-08T13:35:20.192Z,97060.28
2023-03-08T13:37:55.226Z,97057.63
2023-03-08T13:40:25.284Z,97065.75
2023-03-08T13:42:59.311Z,97050.22
2023-03-08T13:45:28.607Z,97053.44
2023-03-08T13:48:02.233Z,97037.13
2023-03-08T13:50:33.797Z,97041.13
2023-03-08T13:53:08.354Z,97054.34
2023-03-08T13:55:40.919Z,97057.56
2023-03-08T13:58:25.851Z,97053.97
2023-03-08T14:01:03.397Z,97059.72
2023-03-08T14:03:34.647Z,97057.03
2023-03-08T14:06:03.282Z,97044.06
2023-03-08T14:08:32.167Z,97047.25
2023-03-08T14:11:04.672Z,97029.31
2023-03-08T14:13:36.220Z,97046.84
2023-03-08T14:16:08.342Z,97044.94
2023-03-08T14:18:40.860Z,97054.19
2023-03-08T14:21:18.457Z,97050.72
2023-03-08T14:23:51.494Z,97056.44
2023-03-08T14:26:33.761Z,97055.38
2023-03-08T14:29:21.889Z,97061.25
2023-03-08T14:32:07.137Z,97066.84
2023-03-08T14:34:40.643Z,97057.38
2023-03-08T14:37:28.279Z,97044.50
2023-03-08T14:40:19.700Z,97038.47
2023-03-08T14:42:52.192Z,97034.03
2023-03-08T14:45:24.258Z,97027.09
2023-03-08T14:47:58.158Z,97029.47
2023-03-08T14:50:30.673Z,97017.56
2023-03-08T14:53:01.864Z,97018.22
2023-03-08T14:55:33.960Z,97013.00
2023-03-08T14:58:05.607Z,97013.78
2023-03-08T15:00:34.300Z,97023.81
2023-03-08T15:03:03.113Z,97004.13
2023-03-08T15:05:36.546Z,97002.38
2023-03-08T15:08:05.626Z,97001.31
2023-03-08T15:10:38.391Z,96988.44
2023-03-08T15:13:10.631Z,96995.13
2023-03-08T15:15:39.275Z,96998.47
2023-03-08T15:18:08.091Z,96987.22
2023-03-08T15:20:44.587Z,96981.97
2023-03-08T15:23:20.835Z,96984.38
2023-03-08T15:25:49.719Z,96979.94
2023-03-08T15:28:21.496Z,96987.28
2023-03-08T15:30:52.834Z,96992.38
2023-03-08T15:33:21.856Z,96982.88
2023-03-08T15:35:54.970Z,96983.66
2023-03-08T15:38:24.779Z,96989.41
2023-03-08T15:40:53.393Z,96993.53
2023-03-08T15:43:22.134Z,97000.09
2023-03-08T15:45:50.787Z,96993.28
2023-03-08T15:48:20.561Z,97002.38
2023-03-08T15:50:53.568Z,96989.66
2023-03-08T15:53:34.541Z,96986.13
2023-03-08T15:56:04.546Z,96983.47
2023-03-08T15:58:33.371Z,96971.38
2023-03-08T16:01:02.011Z,96983.97
2023-03-08T16:03:31.594Z,96989.06
2023-03-08T16:06:01.879Z,96978.72
2023-03-08T16:08:31.370Z,96984.47
2023-03-08T16:11:04.131Z,96989.56
2023-03-08T16:13:33.720Z,96991.19
2023-03-08T16:16:03.726Z,96978.31
2023-03-08T16:18:34.579Z,96966.50
2023-03-08T16:21:09.693Z,96970.53
2023-03-08T16:23:39.401Z,96957.78
2023-03-08T16:26:15.811Z,96945.06
2023-03-08T16:28:46.762Z,96961.94
2023-03-08T16:31:17.327Z,96972.75
2023-03-08T16:33:46.174Z,96978.00
2023-03-08T16:36:16.584Z,96985.50
2023-03-08T16:38:45.367Z,96982.00
2023-03-08T16:41:14.594Z,96986.28
2023-03-08T16:43:48.016Z,96984.56
2023-03-08T16:46:19.027Z,96998.88
2023-03-08T16:48:49.588Z,96994.75
2023-03-08T16:51:22.979Z,96997.28
2023-03-08T16:53:52.030Z,97005.72
2023-03-08T16:56:22.166Z,96998.06
2023-03-08T16:58:51.270Z,97000.63
2023-03-08T17:01:21.641Z,97007.31
2023-03-08T17:03:51.073Z,96997.13
2023-03-08T17:06:23.866Z,96999.69
2023-03-08T17:08:52.930Z,96994.59
2023-03-08T17:11:23.939Z,96984.41
2023-03-08T17:13:55.516Z,96980.25
2023-03-08T17:16:27.460Z,96986.94
2023-03-08T17:18:57.715Z,96987.75
2023-03-08T17:21:28.792Z,97003.16
2023-03-08T17:24:22.117Z,97003.16
2023-03-08T17:26:53.052Z,97001.56
2023-03-08T17:29:22.320Z,96992.97
2023-03-08T17:31:51.757Z,96992.97
2023-03-08T17:34:23.055Z,96990.44
2023-03-08T17:36:53.527Z,96996.47
2023-03-08T17:39:22.433Z,97010.94
2023-03-08T17:41:51.323Z,97010.94
2023-03-08T17:44:20.126Z,97013.50
2023-03-08T17:46:48.739Z,97016.81
2023-03-08T17:49:23.219Z,97013.50
2023-03-08T17:51:54.161Z,97011.88
2023-03-08T17:54:22.958Z,97011.09
2023-03-08T17:56:51.688Z,97026.38
2023-03-08T17:59:20.662Z,97023.81
2023-03-08T18:01:49.259Z,97029.84
2023-03-08T18:04:19.084Z,97014.59
2023-03-08T18:06:47.763Z,97016.47
2023-03-08T18:09:18.358Z,97020.59
2023-03-08T18:11:48.269Z,97019.81
2023-03-08T18:14:17.279Z,97014.72
2023-03-08T18:16:46.477Z,97005.34
2023-03-08T18:19:15.338Z,96989.28
2023-03-08T18:21:43.996Z,97011.41
2023-03-08T18:24:13.927Z,97013.94
2023-03-08T18:26:43.983Z,97029.22
2023-03-08T18:29:12.680Z,97020.75
2023-03-08T18:31:41.754Z,97013.13
2023-03-08T18:34:10.475Z,97022.66
2023-03-08T18:36:39.585Z,97019.28
2023-03-08T18:39:13.715Z,97022.50
2023-03-08T18:41:43.760Z,97027.59
2023-03-08T18:44:13.647Z,97017.41
2023-03-08T18:46:42.463Z,97022.50
2023-03-08T18:49:14.015Z,97024.13
2023-03-08T18:51:44.150Z,97021.56
2023-03-08T18:54:15.996Z,97019.03
2023-03-08T18:56:46.255Z,97016.47
2023-03-08T18:59:15.827Z,97022.34
2023-03-08T19:01:44.597Z,97039.38
2023-03-08T19:04:13.320Z,97044.47
2023-03-08T19:06:42.072Z,97046.06
2023-03-08T19:09:12.079Z,97046.06
2023-03-08T19:11:41.091Z,97045.28
2023-03-08T19:14:12.674Z,97039.38
2023-03-08T19:16:41.989Z,97033.47
2023-03-08T19:19:13.047Z,97037.78
2023-03-08T19:21:44.563Z,97037.00
2023-03-08T19:24:14.216Z,97031.91
2023-03-08T19:26:47.175Z,97051.44
2023-03-08T19:29:19.699Z,97054.00
2023-03-08T19:31:52.305Z,97049.84
2023-03-08T19:34:22.968Z,97049.84
2023-03-08T19:36:53.179Z,97056.53
2023-03-08T19:39:25.157Z,97048.75
2023-03-08T19:41:57.199Z,97042.09
2023-03-08T19:44:28.124Z,97052.25
2023-03-08T19:46:57.186Z,97051.31
2023-03-08T19:49:29.759Z,97066.56
2023-03-08T19:52:00.985Z,97055.59
2023-03-08T19:54:31.614Z,97050.34
2023-03-08T19:57:01.094Z,97047.03
2023-03-08T19:59:31.151Z,97041.94
2023-03-08T20:01:59.884Z,97047.03
2023-03-08T20:04:29.371Z,97042.72
2023-03-08T20:07:01.806Z,97039.38
2023-03-08T20:09:30.802Z,97039.38
2023-03-08T20:11:59.599Z,97038.56
2023-03-08T20:14:30.195Z,97036.84
2023-03-08T20:17:01.509Z,97036.03
2023-03-08T20:19:31.928Z,97028.38
2023-03-08T20:22:01.486Z,97029.22
2023-03-08T20:24:30.240Z,97029.22
2023-03-08T20:26:59.304Z,97025.69
2023-03-08T20:29:28.061Z,97036.69
2023-03-08T20:31:59.289Z,97029.84
2023-03-08T20:34:28.551Z,97028.13
2023-03-08T20:36:57.321Z,97038.31
2023-03-08T20:39:26.070Z,97041.63
2023-03-08T20:41:56.101Z,97031.47
2023-03-08T20:44:24.830Z,97024.59
2023-03-08T20:46:53.489Z,97028.91
2023-03-08T20:49:24.288Z,97028.13
2023-03-08T20:51:52.933Z,97033.22
2023-03-08T20:54:21.519Z,97031.47
2023-03-08T20:56:50.622Z,97023.81
2023-03-08T20:59:23.098Z,97029.56
2023-03-08T21:01:52.177Z,97023.81
2023-03-08T21:04:22.433Z,97026.38
2023-03-08T21:06:51.452Z,97021.28
2023-03-08T21:09:20.343Z,97031.47
2023-03-08T21:11:49.296Z,97018.72
2023-03-08T21:14:18.038Z,97021.28
2023-03-08T21:16:47.648Z,97023.81
2023-03-08T21:19:17.200Z,97028.91
2023-03-08T21:21:47.265Z,97016.81
2023-03-08T21:24:18.670Z,97002.66
2023-03-08T21:26:47.376Z,97003.47
2023-03-08T21:29:18.736Z,97004.41
2023-03-08T21:31:50.739Z,97001.84
2023-03-08T21:34:20.795Z,96987.41
2023-03-08T21:36:51.053Z,96978.78
2023-03-08T21:39:19.945Z,96975.31
2023-03-08T21:41:50.547Z,96971.00
2023-03-08T21:44:21.720Z,96981.19
2023-03-08T21:46:51.579Z,96992.19
2023-03-08T21:49:23.873Z,96981.19
2023-03-08T21:51:56.109Z,96994.75
2023-03-08T21:54:26.758Z,96997.28
2023-03-08T21:56:55.387Z,96998.06
2023-03-08T21:59:27.013Z,96995.53
2023-03-08T22:01:58.432Z,96987.09
2023-03-08T22:04:27.806Z,96971.81
2023-03-08T22:06:58.213Z,96974.38
2023-03-08T22:09:29.205Z,96960.72
2023-03-08T22:11:59.324Z,96969.13
2023-03-08T22:14:28.383Z,96968.19
2023-03-08T22:16:57.180Z,96964.72
2023-03-08T22:19:25.871Z,96971.38
2023-03-08T22:21:54.574Z,96978.06
2023-03-08T22:24:24.612Z,96959.31
2023-03-08T22:26:53.250Z,96953.28
2023-03-08T22:29:21.871Z,96959.94
2023-03-08T22:31:50.480Z,96955.53
2023-03-08T22:34:19.092Z,96954.59
2023-03-08T22:36:47.669Z,96950.28
2023-03-08T22:39:16.291Z,96941.56
2023-03-08T22:41:46.343Z,96939.81
2023-03-08T22:44:16.054Z,96926.91
2023-03-08T22:46:44.746Z,96937.09
2023-03-08T22:49:14.473Z,96935.22
2023-03-08T22:51:44.708Z,96924.25
2023-03-08T22:54:17.617Z,96919.00
2023-03-08T22:56:49.765Z,96901.81
2023-03-08T22:59:19.131Z,96911.06
2023-03-08T23:01:47.889Z,96905.03
2023-03-08T23:04:16.627Z,96896.41
2023-03-08T23:06:45.549Z,96894.69
2023-03-08T23:09:14.867Z,96891.19
2023-03-08T23:11:44.464Z,96880.19
2023-03-08T23:14:14.597Z,96874.16
2023-03-08T23:16:46.396Z,96868.13
2023-03-08T23:19:18.449Z,96870.53
2023-03-08T23:21:47.596Z,96861.94
2023-03-08T23:24:17.750Z,96857.63
2023-03-08T23:26:47.003Z,96851.59
2023-03-08T23:29:17.413Z,96840.47
2023-03-08T23:31:47.456Z,96839.50
2023-03-08T23:34:16.270Z,96826.63
2023-03-08T23:36:45.010Z,96814.69
2023-03-08T23:39:13.644Z,96816.31
2023-03-08T23:41:42.906Z,96822.19
2023-03-08T23:44:17.295Z,96834.75
2023-03-08T23:46:47.338Z,96835.53
2023-03-08T23:49:16.987Z,96828.72
2023-03-08T23:51:46.366Z,96841.31
2023-03-08T23:54:15.046Z,96844.63
2023-03-08T23:56:45.203Z,96842.09
2023-03-08T23:59:18.213Z,96832.72
